sensor_id;sensor_type;location;lat;lon;timestamp;P1;durP1;ratioP1;P2;durP2;ratioP2
16063;SDS011;8136;53.172;8.256;2022-08-21T00:00:20;4.33;;;2.40;;
16063;SDS011;8136;53.172;8.256;2022-08-21T00:02:49;4.80;;;2.37;;
16063;SDS011;8136;53.172;8.256;2022-08-21T00:05:18;3.63;;;2.30;;
16063;SDS011;8136;53.172;8.256;2022-08-21T00:07:45;4.03;;;2.40;;
16063;SDS011;8136;53.172;8.256;2022-08-21T00:10:12;4.33;;;2.30;;
16063;SDS011;8136;53.172;8.256;2022-08-21T00:12:42;4.37;;;2.30;;
16063;SDS011;8136;53.172;8.256;2022-08-21T00:15:10;3.67;;;2.60;;
16063;SDS011;8136;53.172;8.256;2022-08-21T00:17:38;5.33;;;2.67;;
16063;SDS011;8136;53.172;8.256;2022-08-21T00:20:06;3.43;;;2.57;;
16063;SDS011;8136;53.172;8.256;2022-08-21T00:22:35;3.50;;;2.20;;
16063;SDS011;8136;53.172;8.256;2022-08-21T00:25:03;3.03;;;2.17;;
16063;SDS011;8136;53.172;8.256;2022-08-21T00:27:31;3.60;;;2.10;;
16063;SDS011;8136;53.172;8.256;2022-08-21T00:29:59;4.93;;;2.47;;
16063;SDS011;8136;53.172;8.256;2022-08-21T00:32:26;3.70;;;2.50;;
16063;SDS011;8136;53.172;8.256;2022-08-21T00:34:54;5.23;;;2.57;;
16063;SDS011;8136;53.172;8.256;2022-08-21T00:37:21;4.50;;;2.30;;
16063;SDS011;8136;53.172;8.256;2022-08-21T00:39:49;4.13;;;2.40;;
16063;SDS011;8136;53.172;8.256;2022-08-21T00:42:16;3.13;;;2.33;;
16063;SDS011;8136;53.172;8.256;2022-08-21T00:44:45;4.30;;;2.43;;
16063;SDS011;8136;53.172;8.256;2022-08-21T00:47:15;5.03;;;2.40;;
16063;SDS011;8136;53.172;8.256;2022-08-21T00:49:42;4.47;;;2.30;;
16063;SDS011;8136;53.172;8.256;2022-08-21T00:52:11;6.27;;;2.60;;
16063;SDS011;8136;53.172;8.256;2022-08-21T00:54:41;7.73;;;2.37;;
16063;SDS011;8136;53.172;8.256;2022-08-21T00:57:10;3.93;;;2.30;;
16063;SDS011;8136;53.172;8.256;2022-08-21T00:59:41;4.17;;;2.23;;
16063;SDS011;8136;53.172;8.256;2022-08-21T01:02:10;4.13;;;2.40;;
16063;SDS011;8136;53.172;8.256;2022-08-21T01:04:38;5.93;;;2.20;;
16063;SDS011;8136;53.172;8.256;2022-08-21T01:07:06;5.50;;;2.20;;
16063;SDS011;8136;53.172;8.256;2022-08-21T01:09:33;5.97;;;3.03;;
16063;SDS011;8136;53.172;8.256;2022-08-21T01:12:00;3.90;;;2.30;;
16063;SDS011;8136;53.172;8.256;2022-08-21T01:14:26;4.67;;;2.50;;
16063;SDS011;8136;53.172;8.256;2022-08-21T01:16:53;5.57;;;2.40;;
16063;SDS011;8136;53.172;8.256;2022-08-21T01:19:22;3.53;;;2.40;;
16063;SDS011;8136;53.172;8.256;2022-08-21T01:21:51;3.47;;;2.30;;
16063;SDS011;8136;53.172;8.256;2022-08-21T01:24:18;3.67;;;2.37;;
16063;SDS011;8136;53.172;8.256;2022-08-21T01:26:46;4.07;;;2.30;;
16063;SDS011;8136;53.172;8.256;2022-08-21T01:29:16;7.67;;;2.50;;
16063;SDS011;8136;53.172;8.256;2022-08-21T01:31:48;5.20;;;3.10;;
16063;SDS011;8136;53.172;8.256;2022-08-21T01:34:16;7.33;;;2.80;;
16063;SDS011;8136;53.172;8.256;2022-08-21T01:36:43;3.87;;;2.60;;
16063;SDS011;8136;53.172;8.256;2022-08-21T01:39:13;5.33;;;2.97;;
16063;SDS011;8136;53.172;8.256;2022-08-21T01:41:40;6.30;;;3.00;;
16063;SDS011;8136;53.172;8.256;2022-08-21T01:44:07;9.00;;;3.13;;
16063;SDS011;8136;53.172;8.256;2022-08-21T01:46:34;4.23;;;2.77;;
16063;SDS011;8136;53.172;8.256;2022-08-21T01:49:01;6.77;;;3.40;;
16063;SDS011;8136;53.172;8.256;2022-08-21T01:51:29;4.37;;;2.43;;
16063;SDS011;8136;53.172;8.256;2022-08-21T01:53:55;4.23;;;2.43;;
16063;SDS011;8136;53.172;8.256;2022-08-21T01:56:23;5.00;;;2.53;;
16063;SDS011;8136;53.172;8.256;2022-08-21T01:58:52;4.07;;;2.50;;
16063;SDS011;8136;53.172;8.256;2022-08-21T02:01:19;7.17;;;2.80;;
16063;SDS011;8136;53.172;8.256;2022-08-21T02:03:46;5.80;;;3.27;;
16063;SDS011;8136;53.172;8.256;2022-08-21T02:06:13;4.87;;;3.03;;
16063;SDS011;8136;53.172;8.256;2022-08-21T02:08:42;4.73;;;3.20;;
16063;SDS011;8136;53.172;8.256;2022-08-21T02:11:09;3.73;;;2.90;;
16063;SDS011;8136;53.172;8.256;2022-08-21T02:13:38;5.47;;;2.80;;
16063;SDS011;8136;53.172;8.256;2022-08-21T02:16:05;5.70;;;2.77;;
16063;SDS011;8136;53.172;8.256;2022-08-21T02:18:32;4.50;;;2.60;;
16063;SDS011;8136;53.172;8.256;2022-08-21T02:20:59;5.73;;;3.00;;
16063;SDS011;8136;53.172;8.256;2022-08-21T02:23:26;4.77;;;2.90;;
16063;SDS011;8136;53.172;8.256;2022-08-21T02:25:53;4.13;;;2.77;;
16063;SDS011;8136;53.172;8.256;2022-08-21T02:28:20;4.90;;;2.40;;
16063;SDS011;8136;53.172;8.256;2022-08-21T02:30:49;5.70;;;2.73;;
16063;SDS011;8136;53.172;8.256;2022-08-21T02:33:16;5.03;;;2.93;;
16063;SDS011;8136;53.172;8.256;2022-08-21T02:35:44;3.70;;;2.60;;
16063;SDS011;8136;53.172;8.256;2022-08-21T02:38:13;2.90;;;2.57;;
16063;SDS011;8136;53.172;8.256;2022-08-21T02:40:43;6.40;;;2.50;;
16063;SDS011;8136;53.172;8.256;2022-08-21T02:43:10;5.17;;;2.90;;
16063;SDS011;8136;53.172;8.256;2022-08-21T02:45:38;5.83;;;2.93;;
16063;SDS011;8136;53.172;8.256;2022-08-21T02:48:08;4.03;;;2.80;;
16063;SDS011;8136;53.172;8.256;2022-08-21T02:50:38;4.83;;;3.10;;
16063;SDS011;8136;53.172;8.256;2022-08-21T02:53:08;6.30;;;2.73;;
16063;SDS011;8136;53.172;8.256;2022-08-21T02:55:36;5.10;;;2.80;;
16063;SDS011;8136;53.172;8.256;2022-08-21T02:58:04;5.00;;;3.00;;
16063;SDS011;8136;53.172;8.256;2022-08-21T03:00:33;3.93;;;2.80;;
16063;SDS011;8136;53.172;8.256;2022-08-21T03:03:03;4.97;;;3.00;;
16063;SDS011;8136;53.172;8.256;2022-08-21T03:05:33;4.47;;;2.70;;
16063;SDS011;8136;53.172;8.256;2022-08-21T03:08:02;6.40;;;3.33;;
16063;SDS011;8136;53.172;8.256;2022-08-21T03:10:31;4.30;;;3.13;;
16063;SDS011;8136;53.172;8.256;2022-08-21T03:12:58;4.17;;;3.23;;
16063;SDS011;8136;53.172;8.256;2022-08-21T03:15:25;5.57;;;2.70;;
16063;SDS011;8136;53.172;8.256;2022-08-21T03:17:52;4.60;;;2.80;;
16063;SDS011;8136;53.172;8.256;2022-08-21T03:20:20;8.10;;;3.00;;
16063;SDS011;8136;53.172;8.256;2022-08-21T03:22:51;3.27;;;2.47;;
16063;SDS011;8136;53.172;8.256;2022-08-21T03:25:18;8.07;;;2.93;;
16063;SDS011;8136;53.172;8.256;2022-08-21T03:27:46;4.07;;;2.63;;
16063;SDS011;8136;53.172;8.256;2022-08-21T03:30:13;3.93;;;2.30;;
16063;SDS011;8136;53.172;8.256;2022-08-21T03:32:41;5.60;;;2.93;;
16063;SDS011;8136;53.172;8.256;2022-08-21T03:35:08;4.63;;;2.77;;
16063;SDS011;8136;53.172;8.256;2022-08-21T03:37:35;4.17;;;2.80;;
16063;SDS011;8136;53.172;8.256;2022-08-21T03:40:04;2.97;;;2.63;;
16063;SDS011;8136;53.172;8.256;2022-08-21T03:42:32;4.80;;;2.90;;
16063;SDS011;8136;53.172;8.256;2022-08-21T03:44:58;5.67;;;3.40;;
16063;SDS011;8136;53.172;8.256;2022-08-21T03:47:26;4.77;;;3.00;;
16063;SDS011;8136;53.172;8.256;2022-08-21T03:49:53;6.87;;;3.40;;
16063;SDS011;8136;53.172;8.256;2022-08-21T03:52:20;6.67;;;3.10;;
16063;SDS011;8136;53.172;8.256;2022-08-21T03:54:48;7.50;;;3.83;;
16063;SDS011;8136;53.172;8.256;2022-08-21T03:57:17;5.10;;;3.10;;
16063;SDS011;8136;53.172;8.256;2022-08-21T03:59:44;3.50;;;3.20;;
16063;SDS011;8136;53.172;8.256;2022-08-21T04:02:11;6.17;;;4.07;;
16063;SDS011;8136;53.172;8.256;2022-08-21T04:04:42;6.50;;;3.80;;
16063;SDS011;8136;53.172;8.256;2022-08-21T04:07:09;7.03;;;3.90;;
16063;SDS011;8136;53.172;8.256;2022-08-21T04:09:36;4.77;;;3.80;;
16063;SDS011;8136;53.172;8.256;2022-08-21T04:12:03;7.33;;;4.07;;
16063;SDS011;8136;53.172;8.256;2022-08-21T04:14:32;6.17;;;4.00;;
16063;SDS011;8136;53.172;8.256;2022-08-21T04:16:58;8.67;;;4.50;;
16063;SDS011;8136;53.172;8.256;2022-08-21T04:19:25;7.33;;;4.33;;
16063;SDS011;8136;53.172;8.256;2022-08-21T04:21:52;10.00;;;4.23;;
16063;SDS011;8136;53.172;8.256;2022-08-21T04:24:19;5.77;;;4.37;;
16063;SDS011;8136;53.172;8.256;2022-08-21T04:26:45;5.27;;;4.20;;
16063;SDS011;8136;53.172;8.256;2022-08-21T04:29:12;9.73;;;4.27;;
16063;SDS011;8136;53.172;8.256;2022-08-21T04:31:40;7.17;;;4.70;;
16063;SDS011;8136;53.172;8.256;2022-08-21T04:34:08;9.83;;;4.47;;
16063;SDS011;8136;53.172;8.256;2022-08-21T04:36:35;7.80;;;5.10;;
16063;SDS011;8136;53.172;8.256;2022-08-21T04:39:02;9.17;;;4.50;;
16063;SDS011;8136;53.172;8.256;2022-08-21T04:41:29;10.10;;;4.63;;
16063;SDS011;8136;53.172;8.256;2022-08-21T04:43:56;5.00;;;4.50;;
16063;SDS011;8136;53.172;8.256;2022-08-21T04:46:22;6.63;;;4.73;;
16063;SDS011;8136;53.172;8.256;2022-08-21T04:48:51;6.63;;;4.57;;
16063;SDS011;8136;53.172;8.256;2022-08-21T04:51:18;8.20;;;4.70;;
16063;SDS011;8136;53.172;8.256;2022-08-21T04:53:49;9.10;;;4.63;;
16063;SDS011;8136;53.172;8.256;2022-08-21T04:56:19;9.67;;;5.10;;
16063;SDS011;8136;53.172;8.256;2022-08-21T04:58:49;6.30;;;5.43;;
16063;SDS011;8136;53.172;8.256;2022-08-21T05:01:19;10.23;;;5.20;;
16063;SDS011;8136;53.172;8.256;2022-08-21T05:03:49;5.60;;;4.87;;
16063;SDS011;8136;53.172;8.256;2022-08-21T05:06:20;8.07;;;5.40;;
16063;SDS011;8136;53.172;8.256;2022-08-21T05:08:49;9.40;;;5.33;;
16063;SDS011;8136;53.172;8.256;2022-08-21T05:11:19;10.03;;;5.70;;
16063;SDS011;8136;53.172;8.256;2022-08-21T05:13:47;8.97;;;5.50;;
16063;SDS011;8136;53.172;8.256;2022-08-21T05:16:14;9.90;;;5.47;;
16063;SDS011;8136;53.172;8.256;2022-08-21T05:18:41;8.53;;;5.73;;
16063;SDS011;8136;53.172;8.256;2022-08-21T05:21:09;9.03;;;6.40;;
16063;SDS011;8136;53.172;8.256;2022-08-21T05:23:35;7.33;;;5.30;;
16063;SDS011;8136;53.172;8.256;2022-08-21T05:26:02;10.13;;;6.20;;
16063;SDS011;8136;53.172;8.256;2022-08-21T05:28:30;8.63;;;6.60;;
16063;SDS011;8136;53.172;8.256;2022-08-21T05:30:57;10.50;;;6.27;;
16063;SDS011;8136;53.172;8.256;2022-08-21T05:33:23;9.40;;;5.77;;
16063;SDS011;8136;53.172;8.256;2022-08-21T05:35:51;10.83;;;6.13;;
16063;SDS011;8136;53.172;8.256;2022-08-21T05:38:21;12.17;;;6.33;;
16063;SDS011;8136;53.172;8.256;2022-08-21T05:40:49;7.70;;;6.10;;
16063;SDS011;8136;53.172;8.256;2022-08-21T05:43:16;10.30;;;6.57;;
16063;SDS011;8136;53.172;8.256;2022-08-21T05:45:43;10.63;;;5.97;;
16063;SDS011;8136;53.172;8.256;2022-08-21T05:48:11;6.47;;;5.77;;
16063;SDS011;8136;53.172;8.256;2022-08-21T05:50:40;9.97;;;6.57;;
16063;SDS011;8136;53.172;8.256;2022-08-21T05:53:07;11.20;;;6.73;;
16063;SDS011;8136;53.172;8.256;2022-08-21T05:55:36;8.67;;;6.77;;
16063;SDS011;8136;53.172;8.256;2022-08-21T05:58:04;11.00;;;6.10;;
16063;SDS011;8136;53.172;8.256;2022-08-21T06:00:31;10.73;;;6.53;;
16063;SDS011;8136;53.172;8.256;2022-08-21T06:02:58;9.03;;;5.80;;
16063;SDS011;8136;53.172;8.256;2022-08-21T06:05:25;13.17;;;6.87;;
16063;SDS011;8136;53.172;8.256;2022-08-21T06:07:52;11.57;;;6.80;;
16063;SDS011;8136;53.172;8.256;2022-08-21T06:10:19;14.20;;;5.80;;
16063;SDS011;8136;53.172;8.256;2022-08-21T06:12:48;11.63;;;5.83;;
16063;SDS011;8136;53.172;8.256;2022-08-21T06:15:19;11.00;;;5.97;;
16063;SDS011;8136;53.172;8.256;2022-08-21T06:17:46;7.07;;;5.73;;
16063;SDS011;8136;53.172;8.256;2022-08-21T06:20:12;7.20;;;5.50;;
16063;SDS011;8136;53.172;8.256;2022-08-21T06:22:39;8.60;;;5.37;;
16063;SDS011;8136;53.172;8.256;2022-08-21T06:25:06;10.83;;;5.47;;
16063;SDS011;8136;53.172;8.256;2022-08-21T06:27:34;9.77;;;5.50;;
16063;SDS011;8136;53.172;8.256;2022-08-21T06:30:02;9.40;;;5.47;;
16063;SDS011;8136;53.172;8.256;2022-08-21T06:32:30;11.27;;;5.17;;
16063;SDS011;8136;53.172;8.256;2022-08-21T06:34:57;11.00;;;5.50;;
16063;SDS011;8136;53.172;8.256;2022-08-21T06:37:24;9.77;;;5.80;;
16063;SDS011;8136;53.172;8.256;2022-08-21T06:39:51;10.43;;;6.03;;
16063;SDS011;8136;53.172;8.256;2022-08-21T06:42:18;12.23;;;6.67;;
16063;SDS011;8136;53.172;8.256;2022-08-21T06:44:44;6.50;;;5.33;;
16063;SDS011;8136;53.172;8.256;2022-08-21T06:47:14;10.27;;;6.00;;
16063;SDS011;8136;53.172;8.256;2022-08-21T06:49:41;7.27;;;4.83;;
16063;SDS011;8136;53.172;8.256;2022-08-21T06:52:08;9.27;;;5.30;;
16063;SDS011;8136;53.172;8.256;2022-08-21T06:54:36;7.47;;;5.50;;
16063;SDS011;8136;53.172;8.256;2022-08-21T06:57:04;8.83;;;5.53;;
16063;SDS011;8136;53.172;8.256;2022-08-21T06:59:35;9.60;;;5.10;;
16063;SDS011;8136;53.172;8.256;2022-08-21T07:02:02;7.50;;;4.97;;
16063;SDS011;8136;53.172;8.256;2022-08-21T07:04:30;8.97;;;4.90;;
16063;SDS011;8136;53.172;8.256;2022-08-21T07:06:57;8.63;;;4.47;;
16063;SDS011;8136;53.172;8.256;2022-08-21T07:09:24;6.50;;;3.63;;
16063;SDS011;8136;53.172;8.256;2022-08-21T07:15:16;7.77;;;3.73;;
16063;SDS011;8136;53.172;8.256;2022-08-21T07:17:43;8.60;;;4.33;;
16063;SDS011;8136;53.172;8.256;2022-08-21T07:20:11;10.67;;;3.60;;
16063;SDS011;8136;53.172;8.256;2022-08-21T07:22:38;8.37;;;3.57;;
16063;SDS011;8136;53.172;8.256;2022-08-21T07:25:07;8.77;;;3.17;;
16063;SDS011;8136;53.172;8.256;2022-08-21T07:27:34;6.03;;;3.10;;
16063;SDS011;8136;53.172;8.256;2022-08-21T07:30:01;6.17;;;3.27;;
16063;SDS011;8136;53.172;8.256;2022-08-21T07:32:28;8.20;;;2.83;;
16063;SDS011;8136;53.172;8.256;2022-08-21T07:34:54;6.50;;;2.93;;
16063;SDS011;8136;53.172;8.256;2022-08-21T07:37:23;6.13;;;3.00;;
16063;SDS011;8136;53.172;8.256;2022-08-21T07:39:50;4.93;;;2.67;;
16063;SDS011;8136;53.172;8.256;2022-08-21T07:42:16;8.37;;;2.60;;
16063;SDS011;8136;53.172;8.256;2022-08-21T07:44:43;6.50;;;2.63;;
16063;SDS011;8136;53.172;8.256;2022-08-21T07:47:10;6.97;;;2.83;;
16063;SDS011;8136;53.172;8.256;2022-08-21T07:49:37;7.03;;;2.80;;
16063;SDS011;8136;53.172;8.256;2022-08-21T07:52:04;4.27;;;2.30;;
16063;SDS011;8136;53.172;8.256;2022-08-21T07:54:32;6.37;;;2.50;;
16063;SDS011;8136;53.172;8.256;2022-08-21T07:57:00;4.87;;;2.43;;
16063;SDS011;8136;53.172;8.256;2022-08-21T07:59:27;7.47;;;2.90;;
16063;SDS011;8136;53.172;8.256;2022-08-21T08:01:53;6.93;;;2.93;;
16063;SDS011;8136;53.172;8.256;2022-08-21T08:04:21;6.80;;;2.90;;
16063;SDS011;8136;53.172;8.256;2022-08-21T08:06:47;5.63;;;2.83;;
16063;SDS011;8136;53.172;8.256;2022-08-21T08:09:14;5.43;;;2.80;;
16063;SDS011;8136;53.172;8.256;2022-08-21T08:11:57;6.13;;;3.30;;
16063;SDS011;8136;53.172;8.256;2022-08-21T08:14:24;7.23;;;2.63;;
16063;SDS011;8136;53.172;8.256;2022-08-21T08:16:54;7.17;;;2.47;;
16063;SDS011;8136;53.172;8.256;2022-08-21T08:19:22;5.63;;;2.37;;
16063;SDS011;8136;53.172;8.256;2022-08-21T08:21:51;5.90;;;2.73;;
16063;SDS011;8136;53.172;8.256;2022-08-21T08:24:37;7.10;;;2.37;;
16063;SDS011;8136;53.172;8.256;2022-08-21T08:27:06;5.97;;;2.47;;
16063;SDS011;8136;53.172;8.256;2022-08-21T08:29:36;8.93;;;2.33;;
16063;SDS011;8136;53.172;8.256;2022-08-21T08:32:08;9.53;;;2.50;;
16063;SDS011;8136;53.172;8.256;2022-08-21T08:34:37;5.07;;;2.13;;
16063;SDS011;8136;53.172;8.256;2022-08-21T08:37:08;8.73;;;2.17;;
16063;SDS011;8136;53.172;8.256;2022-08-21T08:39:36;6.07;;;2.20;;
16063;SDS011;8136;53.172;8.256;2022-08-21T08:44:55;6.50;;;2.60;;
16063;SDS011;8136;53.172;8.256;2022-08-21T08:47:25;6.40;;;1.93;;
16063;SDS011;8136;53.172;8.256;2022-08-21T08:50:02;6.30;;;2.50;;
16063;SDS011;8136;53.172;8.256;2022-08-21T08:52:37;10.27;;;3.13;;
16063;SDS011;8136;53.172;8.256;2022-08-21T08:55:12;4.97;;;2.47;;
16063;SDS011;8136;53.172;8.256;2022-08-21T08:58:02;8.33;;;2.57;;
16063;SDS011;8136;53.172;8.256;2022-08-21T09:00:30;8.70;;;3.00;;
16063;SDS011;8136;53.172;8.256;2022-08-21T09:03:09;9.33;;;2.80;;
16063;SDS011;8136;53.172;8.256;2022-08-21T09:06:02;8.17;;;3.40;;
16063;SDS011;8136;53.172;8.256;2022-08-21T09:09:11;14.80;;;3.40;;
16063;SDS011;8136;53.172;8.256;2022-08-21T09:11:48;6.67;;;3.10;;
16063;SDS011;8136;53.172;8.256;2022-08-21T09:14:27;9.83;;;2.40;;
16063;SDS011;8136;53.172;8.256;2022-08-21T09:17:13;8.90;;;2.77;;
16063;SDS011;8136;53.172;8.256;2022-08-21T09:20:01;7.07;;;2.80;;
16063;SDS011;8136;53.172;8.256;2022-08-21T09:22:43;4.73;;;2.20;;
16063;SDS011;8136;53.172;8.256;2022-08-21T09:25:24;3.53;;;1.87;;
16063;SDS011;8136;53.172;8.256;2022-08-21T09:27:53;7.77;;;2.27;;
16063;SDS011;8136;53.172;8.256;2022-08-21T09:33:38;6.20;;;2.20;;
16063;SDS011;8136;53.172;8.256;2022-08-21T09:36:06;5.87;;;1.70;;
16063;SDS011;8136;53.172;8.256;2022-08-21T09:38:33;5.43;;;2.00;;
16063;SDS011;8136;53.172;8.256;2022-08-21T09:41:03;5.67;;;1.77;;
16063;SDS011;8136;53.172;8.256;2022-08-21T09:43:32;4.03;;;1.53;;
16063;SDS011;8136;53.172;8.256;2022-08-21T09:46:07;7.37;;;2.10;;
16063;SDS011;8136;53.172;8.256;2022-08-21T09:58:43;4.90;;;1.80;;
16063;SDS011;8136;53.172;8.256;2022-08-21T10:01:13;6.63;;;1.53;;
16063;SDS011;8136;53.172;8.256;2022-08-21T10:03:41;4.77;;;1.53;;
16063;SDS011;8136;53.172;8.256;2022-08-21T10:06:09;4.57;;;1.23;;
16063;SDS011;8136;53.172;8.256;2022-08-21T10:08:46;4.00;;;1.57;;
16063;SDS011;8136;53.172;8.256;2022-08-21T10:11:16;4.83;;;1.73;;
16063;SDS011;8136;53.172;8.256;2022-08-21T10:13:57;3.60;;;1.37;;
16063;SDS011;8136;53.172;8.256;2022-08-21T10:16:45;5.27;;;1.70;;
16063;SDS011;8136;53.172;8.256;2022-08-21T10:19:30;5.70;;;1.60;;
16063;SDS011;8136;53.172;8.256;2022-08-21T10:22:09;4.00;;;1.30;;
16063;SDS011;8136;53.172;8.256;2022-08-21T10:24:48;3.80;;;1.60;;
16063;SDS011;8136;53.172;8.256;2022-08-21T10:27:26;5.47;;;1.50;;
16063;SDS011;8136;53.172;8.256;2022-08-21T10:30:03;5.50;;;1.60;;
16063;SDS011;8136;53.172;8.256;2022-08-21T10:32:37;3.80;;;1.33;;
16063;SDS011;8136;53.172;8.256;2022-08-21T10:35:24;5.73;;;1.37;;
16063;SDS011;8136;53.172;8.256;2022-08-21T10:37:59;5.67;;;1.40;;
16063;SDS011;8136;53.172;8.256;2022-08-21T10:40:51;8.43;;;1.63;;
16063;SDS011;8136;53.172;8.256;2022-08-21T10:43:45;4.23;;;1.57;;
16063;SDS011;8136;53.172;8.256;2022-08-21T10:47:11;3.43;;;1.40;;
16063;SDS011;8136;53.172;8.256;2022-08-21T10:49:45;5.73;;;1.50;;
16063;SDS011;8136;53.172;8.256;2022-08-21T10:55:44;6.87;;;1.80;;
16063;SDS011;8136;53.172;8.256;2022-08-21T10:58:19;5.33;;;1.60;;
16063;SDS011;8136;53.172;8.256;2022-08-21T11:00:51;4.43;;;1.20;;
16063;SDS011;8136;53.172;8.256;2022-08-21T11:03:25;3.90;;;1.17;;
16063;SDS011;8136;53.172;8.256;2022-08-21T11:05:59;5.63;;;1.30;;
16063;SDS011;8136;53.172;8.256;2022-08-21T11:08:33;6.40;;;1.60;;
16063;SDS011;8136;53.172;8.256;2022-08-21T11:11:06;3.87;;;1.47;;
16063;SDS011;8136;53.172;8.256;2022-08-21T11:13:39;6.80;;;1.47;;
16063;SDS011;8136;53.172;8.256;2022-08-21T11:16:10;4.10;;;1.20;;
16063;SDS011;8136;53.172;8.256;2022-08-21T11:18:45;6.60;;;1.60;;
16063;SDS011;8136;53.172;8.256;2022-08-21T11:21:20;4.60;;;1.50;;
16063;SDS011;8136;53.172;8.256;2022-08-21T11:23:57;3.93;;;1.30;;
16063;SDS011;8136;53.172;8.256;2022-08-21T11:26:30;6.13;;;1.17;;
16063;SDS011;8136;53.172;8.256;2022-08-21T11:29:04;5.63;;;1.67;;
16063;SDS011;8136;53.172;8.256;2022-08-21T11:31:39;4.23;;;1.20;;
16063;SDS011;8136;53.172;8.256;2022-08-21T11:34:20;4.60;;;1.80;;
16063;SDS011;8136;53.172;8.256;2022-08-21T11:36:59;5.77;;;1.53;;
16063;SDS011;8136;53.172;8.256;2022-08-21T11:39:33;6.43;;;1.67;;
16063;SDS011;8136;53.172;8.256;2022-08-21T11:42:09;2.17;;;1.47;;
16063;SDS011;8136;53.172;8.256;2022-08-21T11:44:47;3.17;;;1.37;;
16063;SDS011;8136;53.172;8.256;2022-08-21T11:47:22;2.87;;;1.20;;
16063;SDS011;8136;53.172;8.256;2022-08-21T11:50:05;4.43;;;1.50;;
16063;SDS011;8136;53.172;8.256;2022-08-21T11:52:40;4.37;;;1.20;;
16063;SDS011;8136;53.172;8.256;2022-08-21T11:55:12;7.87;;;1.40;;
16063;SDS011;8136;53.172;8.256;2022-08-21T11:57:46;3.70;;;1.20;;
16063;SDS011;8136;53.172;8.256;2022-08-21T12:00:20;4.17;;;1.60;;
16063;SDS011;8136;53.172;8.256;2022-08-21T12:02:52;2.70;;;1.20;;
16063;SDS011;8136;53.172;8.256;2022-08-21T12:05:27;2.57;;;1.20;;
16063;SDS011;8136;53.172;8.256;2022-08-21T12:08:03;5.83;;;1.17;;
16063;SDS011;8136;53.172;8.256;2022-08-21T12:10:33;3.07;;;1.17;;
16063;SDS011;8136;53.172;8.256;2022-08-21T12:13:06;2.13;;;1.17;;
16063;SDS011;8136;53.172;8.256;2022-08-21T12:15:36;6.57;;;1.00;;
16063;SDS011;8136;53.172;8.256;2022-08-21T12:18:04;5.70;;;1.50;;
16063;SDS011;8136;53.172;8.256;2022-08-21T12:20:57;5.43;;;1.00;;
16063;SDS011;8136;53.172;8.256;2022-08-21T12:23:30;3.07;;;1.10;;
16063;SDS011;8136;53.172;8.256;2022-08-21T12:26:03;2.40;;;1.10;;
16063;SDS011;8136;53.172;8.256;2022-08-21T12:28:43;2.87;;;1.20;;
16063;SDS011;8136;53.172;8.256;2022-08-21T12:31:17;4.37;;;1.60;;
16063;SDS011;8136;53.172;8.256;2022-08-21T12:33:49;2.57;;;1.27;;
16063;SDS011;8136;53.172;8.256;2022-08-21T12:36:22;5.57;;;1.37;;
16063;SDS011;8136;53.172;8.256;2022-08-21T12:38:52;2.70;;;0.97;;
16063;SDS011;8136;53.172;8.256;2022-08-21T12:41:26;2.67;;;1.10;;
16063;SDS011;8136;53.172;8.256;2022-08-21T12:43:57;3.73;;;1.20;;
16063;SDS011;8136;53.172;8.256;2022-08-21T12:46:30;3.17;;;1.30;;
16063;SDS011;8136;53.172;8.256;2022-08-21T12:49:02;4.30;;;1.23;;
16063;SDS011;8136;53.172;8.256;2022-08-21T12:51:36;2.20;;;1.10;;
16063;SDS011;8136;53.172;8.256;2022-08-21T12:54:23;3.83;;;1.10;;
16063;SDS011;8136;53.172;8.256;2022-08-21T12:56:56;5.93;;;1.53;;
16063;SDS011;8136;53.172;8.256;2022-08-21T12:59:24;3.60;;;1.50;;
16063;SDS011;8136;53.172;8.256;2022-08-21T13:01:51;6.10;;;1.37;;
16063;SDS011;8136;53.172;8.256;2022-08-21T13:04:21;3.17;;;1.10;;
16063;SDS011;8136;53.172;8.256;2022-08-21T13:06:54;2.50;;;1.00;;
16063;SDS011;8136;53.172;8.256;2022-08-21T13:09:26;3.00;;;1.10;;
16063;SDS011;8136;53.172;8.256;2022-08-21T13:11:55;4.00;;;1.00;;
16063;SDS011;8136;53.172;8.256;2022-08-21T13:14:24;2.40;;;1.30;;
16063;SDS011;8136;53.172;8.256;2022-08-21T13:16:54;3.57;;;1.10;;
16063;SDS011;8136;53.172;8.256;2022-08-21T13:19:22;3.40;;;1.10;;
16063;SDS011;8136;53.172;8.256;2022-08-21T13:21:50;1.40;;;0.90;;
16063;SDS011;8136;53.172;8.256;2022-08-21T13:24:21;3.87;;;1.30;;
16063;SDS011;8136;53.172;8.256;2022-08-21T13:26:50;3.57;;;1.10;;
16063;SDS011;8136;53.172;8.256;2022-08-21T13:29:18;4.43;;;1.10;;
16063;SDS011;8136;53.172;8.256;2022-08-21T13:31:48;1.97;;;1.00;;
16063;SDS011;8136;53.172;8.256;2022-08-21T13:34:17;1.83;;;1.00;;
16063;SDS011;8136;53.172;8.256;2022-08-21T13:36:45;3.33;;;1.00;;
16063;SDS011;8136;53.172;8.256;2022-08-21T13:39:15;5.20;;;1.03;;
16063;SDS011;8136;53.172;8.256;2022-08-21T13:41:46;2.50;;;0.90;;
16063;SDS011;8136;53.172;8.256;2022-08-21T13:44:17;3.07;;;1.30;;
16063;SDS011;8136;53.172;8.256;2022-08-21T13:46:47;2.67;;;1.00;;
16063;SDS011;8136;53.172;8.256;2022-08-21T13:49:16;2.90;;;0.70;;
16063;SDS011;8136;53.172;8.256;2022-08-21T13:51:46;1.63;;;0.90;;
16063;SDS011;8136;53.172;8.256;2022-08-21T13:54:20;3.93;;;1.00;;
16063;SDS011;8136;53.172;8.256;2022-08-21T13:56:52;3.37;;;1.00;;
16063;SDS011;8136;53.172;8.256;2022-08-21T13:59:24;3.57;;;1.10;;
16063;SDS011;8136;53.172;8.256;2022-08-21T14:01:54;2.70;;;0.97;;
16063;SDS011;8136;53.172;8.256;2022-08-21T14:04:24;3.70;;;1.00;;
16063;SDS011;8136;53.172;8.256;2022-08-21T14:06:57;2.00;;;0.90;;
16063;SDS011;8136;53.172;8.256;2022-08-21T14:09:26;2.20;;;1.00;;
16063;SDS011;8136;53.172;8.256;2022-08-21T14:11:58;2.60;;;1.10;;
16063;SDS011;8136;53.172;8.256;2022-08-21T14:14:28;1.23;;;0.70;;
16063;SDS011;8136;53.172;8.256;2022-08-21T14:16:58;2.30;;;1.00;;
16063;SDS011;8136;53.172;8.256;2022-08-21T14:19:27;2.07;;;1.00;;
16063;SDS011;8136;53.172;8.256;2022-08-21T14:24:48;1.25;;;0.75;;
16063;SDS011;8136;53.172;8.256;2022-08-21T14:27:17;2.37;;;0.83;;
16063;SDS011;8136;53.172;8.256;2022-08-21T14:29:44;2.72;;;1.02;;
16063;SDS011;8136;53.172;8.256;2022-08-21T14:32:12;1.70;;;0.80;;
16063;SDS011;8136;53.172;8.256;2022-08-21T14:34:41;2.10;;;0.70;;
16063;SDS011;8136;53.172;8.256;2022-08-21T14:37:08;1.60;;;0.70;;
16063;SDS011;8136;53.172;8.256;2022-08-21T14:39:35;3.37;;;1.03;;
16063;SDS011;8136;53.172;8.256;2022-08-21T14:42:01;3.17;;;0.60;;
16063;SDS011;8136;53.172;8.256;2022-08-21T14:44:30;1.40;;;0.70;;
16063;SDS011;8136;53.172;8.256;2022-08-21T14:46:57;1.20;;;0.60;;
16063;SDS011;8136;53.172;8.256;2022-08-21T14:49:25;4.70;;;0.80;;
16063;SDS011;8136;53.172;8.256;2022-08-21T14:51:53;2.10;;;0.80;;
16063;SDS011;8136;53.172;8.256;2022-08-21T14:54:22;3.10;;;0.80;;
16063;SDS011;8136;53.172;8.256;2022-08-21T14:56:49;3.80;;;0.80;;
16063;SDS011;8136;53.172;8.256;2022-08-21T14:59:16;1.70;;;0.80;;
16063;SDS011;8136;53.172;8.256;2022-08-21T15:01:47;2.03;;;0.77;;
16063;SDS011;8136;53.172;8.256;2022-08-21T15:04:14;1.67;;;0.77;;
16063;SDS011;8136;53.172;8.256;2022-08-21T15:06:41;2.10;;;0.80;;
16063;SDS011;8136;53.172;8.256;2022-08-21T15:09:08;4.13;;;0.90;;
16063;SDS011;8136;53.172;8.256;2022-08-21T15:11:35;3.03;;;0.70;;
16063;SDS011;8136;53.172;8.256;2022-08-21T15:14:03;2.10;;;0.90;;
16063;SDS011;8136;53.172;8.256;2022-08-21T15:16:33;2.60;;;0.70;;
16063;SDS011;8136;53.172;8.256;2022-08-21T15:19:02;1.63;;;1.02;;
16063;SDS011;8136;53.172;8.256;2022-08-21T15:21:29;2.63;;;0.73;;
16063;SDS011;8136;53.172;8.256;2022-08-21T15:23:56;1.65;;;0.70;;
16063;SDS011;8136;53.172;8.256;2022-08-21T15:26:23;1.55;;;0.70;;
16063;SDS011;8136;53.172;8.256;2022-08-21T15:28:50;1.90;;;0.57;;
16063;SDS011;8136;53.172;8.256;2022-08-21T15:31:17;1.88;;;0.68;;
16063;SDS011;8136;53.172;8.256;2022-08-21T15:33:44;2.40;;;0.60;;
16063;SDS011;8136;53.172;8.256;2022-08-21T15:36:12;1.40;;;0.60;;
16063;SDS011;8136;53.172;8.256;2022-08-21T15:38:39;2.33;;;0.82;;
16063;SDS011;8136;53.172;8.256;2022-08-21T15:41:05;1.55;;;0.63;;
16063;SDS011;8136;53.172;8.256;2022-08-21T15:43:35;2.33;;;0.70;;